Time;durP1;ratioP1;P1;durP2;ratioP2;P2;SDS_P1;SDS_P2;PMS_P1;PMS_P2;Temp;Humidity;BMP_temperature;BMP_pressure;BME280_temperature;BME280_humidity;BME280_pressure;Samples;Min_cycle;Max_cycle;Signal;HPM_P1;HPM_P2
2021/08/22 00:03:44;;;;;;;3.42;2.85;;;;;;;;;;10276134;28;20068;-56
2021/08/22 00:08:44;;;;;;;5.35;2.97;;;;;;;;;;10275803;28;20045;-56
2021/08/22 00:13:42;;;;;;;3.45;2.83;;;;;;;;;;10275879;28;20037;-56
2021/08/22 00:18:40;;;;;;;6.80;2.80;;;;;;;;;;10283757;28;20041;-56
2021/08/22 00:23:39;;;;;;;3.75;3.15;;;;;;;;;;10284026;28;20056;-56
2021/08/22 00:28:38;;;;;;;8.73;3.28;;;;;;;;;;10283808;28;20517;-56
2021/08/22 00:33:36;;;;;;;9.75;3.33;;;;;;;;;;10283629;28;20041;-55
2021/08/22 00:38:35;;;;;;;5.20;3.00;;;;;;;;;;10282517;28;20060;-56
2021/08/22 00:43:33;;;;;;;8.55;3.30;;;;;;;;;;10283460;28;20045;-56
2021/08/22 00:48:33;;;;;;;7.88;3.28;;;;;;;;;;10282516;28;20095;-55
2021/08/22 00:53:32;;;;;;;4.60;3.22;;;;;;;;;;10282713;28;20083;-56
2021/08/22 00:58:31;;;;;;;4.05;3.30;;;;;;;;;;10282639;28;20041;-56
2021/08/22 01:03:33;;;;;;;5.72;3.05;;;;;;;;;;10282588;28;20391;-55
2021/08/22 01:08:35;;;;;;;7.65;4.30;;;;;;;;;;10282152;28;20080;-56
2021/08/22 01:13:36;;;;;;;3.92;3.60;;;;;;;;;;10282206;28;20053;-57
2021/08/22 01:18:36;;;;;;;5.13;3.28;;;;;;;;;;10281875;28;20045;-58
2021/08/22 01:23:37;;;;;;;3.55;3.25;;;;;;;;;;10282049;28;20057;-57
2021/08/22 01:28:36;;;;;;;4.22;3.40;;;;;;;;;;10280587;28;20076;-55
2021/08/22 01:33:36;;;;;;;5.75;4.00;;;;;;;;;;10280517;28;20053;-56
2021/08/22 01:38:35;;;;;;;3.72;3.42;;;;;;;;;;10281128;28;20559;-55
2021/08/22 01:43:34;;;;;;;4.60;3.40;;;;;;;;;;10280879;28;20045;-57
2021/08/22 01:48:33;;;;;;;5.25;4.00;;;;;;;;;;10280240;28;20111;-57
2021/08/22 01:53:34;;;;;;;3.85;3.45;;;;;;;;;;10280549;28;20470;-57
2021/08/22 01:58:32;;;;;;;6.25;3.83;;;;;;;;;;10279799;28;20084;-56
2021/08/22 02:03:34;;;;;;;4.18;3.33;;;;;;;;;;10279309;28;20075;-57
2021/08/22 02:08:36;;;;;;;4.35;3.03;;;;;;;;;;10279783;28;20088;-56
2021/08/22 02:13:36;;;;;;;5.65;3.80;;;;;;;;;;10279845;28;20060;-56
2021/08/22 02:18:35;;;;;;;5.97;3.90;;;;;;;;;;10278704;28;20051;-56
2021/08/22 02:23:35;;;;;;;5.15;4.40;;;;;;;;;;10279460;28;20481;-58
2021/08/22 02:28:34;;;;;;;7.55;4.30;;;;;;;;;;10279164;28;20576;-56
2021/08/22 02:33:32;;;;;;;8.07;3.80;;;;;;;;;;10277182;28;20083;-57
2021/08/22 02:38:31;;;;;;;5.65;3.40;;;;;;;;;;10277518;28;20053;-57
2021/08/22 02:43:30;;;;;;;7.53;3.67;;;;;;;;;;10278747;28;20037;-57
2021/08/22 02:48:29;;;;;;;4.85;3.92;;;;;;;;;;10277765;28;20088;-58
2021/08/22 02:53:27;;;;;;;4.00;3.30;;;;;;;;;;10278255;28;20056;-57
2021/08/22 02:58:25;;;;;;;3.97;3.00;;;;;;;;;;10277952;28;20056;-58
2021/08/22 03:03:26;;;;;;;4.85;3.63;;;;;;;;;;10277842;28;20045;-58
2021/08/22 03:08:24;;;;;;;4.05;3.47;;;;;;;;;;10277623;28;20060;-57
2021/08/22 03:13:23;;;;;;;4.05;3.50;;;;;;;;;;10277433;28;20075;-58
2021/08/22 03:18:21;;;;;;;6.45;3.55;;;;;;;;;;10277213;28;20047;-58
2021/08/22 03:23:21;;;;;;;4.72;3.65;;;;;;;;;;10276824;28;20052;-57
2021/08/22 03:28:20;;;;;;;5.15;3.30;;;;;;;;;;10277069;28;20087;-57
2021/08/22 03:33:19;;;;;;;8.48;3.63;;;;;;;;;;10276703;28;20478;-57
2021/08/22 03:38:17;;;;;;;6.40;3.38;;;;;;;;;;10276660;28;20049;-57
2021/08/22 03:43:17;;;;;;;3.75;3.20;;;;;;;;;;10275911;28;20045;-57
2021/08/22 03:48:15;;;;;;;6.55;4.32;;;;;;;;;;10275405;28;20086;-57
2021/08/22 03:53:14;;;;;;;5.32;3.95;;;;;;;;;;10276049;28;20097;-56
2021/08/22 03:58:12;;;;;;;8.02;4.25;;;;;;;;;;10275412;28;20072;-57
2021/08/22 04:03:12;;;;;;;12.35;3.83;;;;;;;;;;10275765;28;20056;-57
2021/08/22 04:08:29;;;;;;;5.00;3.45;;;;;;;;;;10280953;28;20077;-57
2021/08/22 04:13:29;;;;;;;4.93;3.67;;;;;;;;;;10275678;28;20410;-57
2021/08/22 04:18:29;;;;;;;5.03;4.38;;;;;;;;;;10275209;28;20037;-57
2021/08/22 04:23:27;;;;;;;5.78;3.60;;;;;;;;;;10275750;28;20037;-57
2021/08/22 04:28:26;;;;;;;4.30;3.80;;;;;;;;;;10275378;28;20087;-57
2021/08/22 04:33:25;;;;;;;14.88;9.63;;;;;;;;;;10275287;28;20487;-57
2021/08/22 04:38:25;;;;;;;16.38;9.20;;;;;;;;;;10275272;28;20429;-55
2021/08/22 04:43:24;;;;;;;22.35;19.98;;;;;;;;;;10275262;28;20406;-55
2021/08/22 04:48:23;;;;;;;12.40;7.60;;;;;;;;;;10274270;28;20088;-56
2021/08/22 04:53:21;;;;;;;8.15;6.03;;;;;;;;;;10274964;28;20502;-55
2021/08/22 04:58:21;;;;;;;6.25;4.32;;;;;;;;;;10274954;28;20045;-55
2021/08/22 05:03:19;;;;;;;23.88;16.98;;;;;;;;;;10277820;28;20045;-56
2021/08/22 05:08:18;;;;;;;10.93;7.15;;;;;;;;;;10281903;28;20467;-56
2021/08/22 05:13:17;;;;;;;6.90;6.20;;;;;;;;;;10282012;28;20084;-56
2021/08/22 05:18:16;;;;;;;4.82;4.05;;;;;;;;;;10281745;28;20049;-56
2021/08/22 05:23:15;;;;;;;12.70;9.77;;;;;;;;;;10281732;28;20430;-56
2021/08/22 05:28:13;;;;;;;11.38;6.53;;;;;;;;;;10295200;28;20076;-56
2021/08/22 05:33:12;;;;;;;10.50;7.85;;;;;;;;;;10284533;28;20076;-54
2021/08/22 05:38:11;;;;;;;8.98;8.05;;;;;;;;;;10287952;28;20101;-55
2021/08/22 05:43:10;;;;;;;12.13;5.80;;;;;;;;;;10294309;28;20049;-52
2021/08/22 05:48:08;;;;;;;5.43;3.92;;;;;;;;;;10279601;28;20092;-55
2021/08/22 05:53:06;;;;;;;12.85;7.82;;;;;;;;;;10280521;28;20087;-55
2021/08/22 05:58:06;;;;;;;9.02;4.57;;;;;;;;;;10279503;28;20045;-55
2021/08/22 06:03:04;;;;;;;15.23;7.38;;;;;;;;;;10295993;28;20087;-56
2021/08/22 06:08:03;;;;;;;4.20;3.75;;;;;;;;;;10276354;28;20123;-55
2021/08/22 06:13:01;;;;;;;5.18;3.88;;;;;;;;;;10277805;28;20080;-56
2021/08/22 06:18:01;;;;;;;12.95;9.93;;;;;;;;;;10281536;28;20041;-55
2021/08/22 06:22:59;;;;;;;6.68;4.95;;;;;;;;;;10280427;28;20044;-56
2021/08/22 06:27:58;;;;;;;6.43;4.63;;;;;;;;;;10278600;28;20084;-56
2021/08/22 06:32:56;;;;;;;10.27;5.22;;;;;;;;;;10278613;28;20422;-54
2021/08/22 06:37:56;;;;;;;4.30;3.85;;;;;;;;;;10278574;28;20053;-53
2021/08/22 06:42:54;;;;;;;5.65;3.47;;;;;;;;;;10278331;28;20049;-55
2021/08/22 06:47:53;;;;;;;4.72;3.75;;;;;;;;;;10277586;28;20092;-53
2021/08/22 06:52:52;;;;;;;8.07;4.00;;;;;;;;;;10277914;28;20425;-53
2021/08/22 06:57:53;;;;;;;4.47;3.25;;;;;;;;;;10316304;28;20524;-55
2021/08/22 07:02:51;;;;;;;3.97;3.55;;;;;;;;;;10318171;28;20059;-56
2021/08/22 07:07:50;;;;;;;7.10;3.70;;;;;;;;;;10317988;28;20083;-57
2021/08/22 07:12:50;;;;;;;4.13;3.40;;;;;;;;;;10317731;28;20045;-57
2021/08/22 07:17:50;;;;;;;8.50;3.38;;;;;;;;;;10317699;28;20041;-56
2021/08/22 07:22:48;;;;;;;6.03;3.42;;;;;;;;;;10313723;28;20043;-55
2021/08/22 07:27:47;;;;;;;4.55;4.00;;;;;;;;;;10303482;28;20072;-56
2021/08/22 07:32:45;;;;;;;6.47;4.40;;;;;;;;;;10311630;28;20052;-56
2021/08/22 07:37:45;;;;;;;6.45;3.83;;;;;;;;;;10309466;28;20041;-56
2021/08/22 07:42:43;;;;;;;33.15;4.72;;;;;;;;;;10303927;28;20045;-56
2021/08/22 07:47:44;;;;;;;6.32;3.53;;;;;;;;;;10316343;28;20087;-56
2021/08/22 07:52:42;;;;;;;3.47;2.83;;;;;;;;;;10316790;28;20054;-56
2021/08/22 07:57:41;;;;;;;4.70;3.50;;;;;;;;;;10316692;28;20056;-56
2021/08/22 08:02:40;;;;;;;5.63;3.45;;;;;;;;;;10316634;28;20049;-57
2021/08/22 08:07:39;;;;;;;5.20;3.13;;;;;;;;;;10315624;28;20083;-56
2021/08/22 08:12:44;;;;;;;6.15;3.58;;;;;;;;;;10316636;28;20055;-57
2021/08/22 08:17:42;;;;;;;5.03;3.33;;;;;;;;;;10316456;28;20041;-55
2021/08/22 08:22:40;;;;;;;4.72;3.78;;;;;;;;;;10316539;28;20045;-56
2021/08/22 08:27:38;;;;;;;4.13;3.72;;;;;;;;;;10310092;28;20076;-57
2021/08/22 08:32:39;;;;;;;5.13;3.65;;;;;;;;;;10316200;28;20045;-57
2021/08/22 08:37:38;;;;;;;3.65;3.35;;;;;;;;;;10317952;28;20040;-57
2021/08/22 08:42:36;;;;;;;4.00;3.63;;;;;;;;;;10300007;28;20072;-58
2021/08/22 08:47:35;;;;;;;8.80;4.25;;;;;;;;;;10295937;28;20094;-57
2021/08/22 08:52:37;;;;;;;9.00;3.58;;;;;;;;;;10286790;28;20537;-55
2021/08/22 08:57:35;;;;;;;8.43;4.18;;;;;;;;;;10286349;28;20068;-57
2021/08/22 09:02:34;;;;;;;10.65;5.35;;;;;;;;;;10297408;28;20068;-57
2021/08/22 09:07:56;;;;;;;3.97;3.58;;;;;;;;;;10287887;28;20067;-58
2021/08/22 09:13:13;;;;;;;6.95;5.35;;;;;;;;;;10284726;28;20064;-59
2021/08/22 09:18:30;;;;;;;3.70;3.40;;;;;;;;;;10303044;28;20083;-56
2021/08/22 09:23:46;;;;;;;8.07;3.60;;;;;;;;;;10291361;28;20069;-51
2021/08/22 09:29:15;;;;;;;4.63;4.22;;;;;;;;;;10307695;28;20079;-56
2021/08/22 09:34:31;;;;;;;5.82;4.20;;;;;;;;;;10319944;28;20667;-54
2021/08/22 09:39:47;;;;;;;6.10;5.45;;;;;;;;;;10283183;28;20069;-56
2021/08/22 09:45:04;;;;;;;6.60;4.70;;;;;;;;;;10277680;28;20092;-57
2021/08/22 09:50:21;;;;;;;6.82;4.10;;;;;;;;;;10279598;28;20553;-57
2021/08/22 09:55:36;;;;;;;7.63;6.93;;;;;;;;;;10277280;28;20080;-56
2021/08/22 10:01:01;;;;;;;6.25;5.20;;;;;;;;;;10279753;28;20072;-58
2021/08/22 10:06:13;;;;;;;4.75;4.30;;;;;;;;;;10280009;28;20087;-56
2021/08/22 10:11:13;;;;;;;9.10;3.67;;;;;;;;;;10279710;28;20080;-57
2021/08/22 10:16:12;;;;;;;11.45;4.22;;;;;;;;;;10279142;28;20071;-57
2021/08/22 10:21:11;;;;;;;5.80;3.88;;;;;;;;;;10279388;28;20077;-58
2021/08/22 10:26:09;;;;;;;4.70;4.30;;;;;;;;;;10279347;28;20498;-58
2021/08/22 10:31:09;;;;;;;5.03;4.00;;;;;;;;;;10278345;28;20548;-58
2021/08/22 10:36:25;;;;;;;5.93;4.93;;;;;;;;;;10278380;28;20033;-56
2021/08/22 10:41:33;;;;;;;6.30;4.57;;;;;;;;;;10278371;28;20056;-58
2021/08/22 10:46:47;;;;;;;5.65;4.45;;;;;;;;;;10278416;28;20063;-58
2021/08/22 10:52:17;;;;;;;7.72;5.10;;;;;;;;;;10278251;28;20124;-57
2021/08/22 10:57:30;;;;;;;7.35;4.95;;;;;;;;;;10277972;28;20481;-58
2021/08/22 11:02:28;;;;;;;9.25;5.45;;;;;;;;;;10276840;28;20067;-58
2021/08/22 11:07:28;;;;;;;6.45;4.60;;;;;;;;;;10277773;28;20049;-58
2021/08/22 11:12:29;;;;;;;9.10;6.63;;;;;;;;;;10277587;28;20145;-58
2021/08/22 11:17:27;;;;;;;5.00;4.50;;;;;;;;;;10277268;28;20053;-58
2021/08/22 11:22:28;;;;;;;5.90;4.65;;;;;;;;;;10276896;28;20076;-58
2021/08/22 11:27:27;;;;;;;8.38;4.68;;;;;;;;;;10276964;28;20505;-58
2021/08/22 11:32:26;;;;;;;7.78;5.10;;;;;;;;;;10276697;28;20521;-58
2021/08/22 11:37:25;;;;;;;6.93;6.22;;;;;;;;;;10276449;28;20052;-57
2021/08/22 11:42:24;;;;;;;6.82;5.85;;;;;;;;;;10276367;28;20056;-57
2021/08/22 11:47:23;;;;;;;8.27;4.95;;;;;;;;;;10275738;28;20072;-57
2021/08/22 11:52:21;;;;;;;10.57;8.20;;;;;;;;;;10276282;28;20081;-57
2021/08/22 11:57:20;;;;;;;6.53;3.85;;;;;;;;;;10275980;28;20049;-57
2021/08/22 12:02:22;;;;;;;6.32;5.10;;;;;;;;;;10275816;28;20115;-58
2021/08/22 12:07:22;;;;;;;6.18;5.28;;;;;;;;;;10276142;28;20483;-58
2021/08/22 12:12:21;;;;;;;4.60;4.20;;;;;;;;;;10279443;28;20077;-57
2021/08/22 12:17:24;;;;;;;6.82;5.50;;;;;;;;;;10283935;28;20494;-58
2021/08/22 12:22:22;;;;;;;;;;;;;;;;;;10284405;28;20045;-58
2021/08/22 12:27:27;;;;;;;7.22;4.43;;;;;;;;;;10283272;28;19963;-57
2021/08/22 12:32:34;;;;;;;5.25;4.38;;;;;;;;;;10283405;28;20088;-57
2021/08/22 12:37:32;;;;;;;6.93;5.45;;;;;;;;;;10284050;28;20052;-57
2021/08/22 12:42:31;;;;;;;6.63;5.25;;;;;;;;;;10283530;28;20049;-58
2021/08/22 12:47:30;;;;;;;5.25;4.85;;;;;;;;;;10282043;28;20095;-56
2021/08/22 12:52:29;;;;;;;6.50;5.53;;;;;;;;;;10281273;28;20079;-56
2021/08/22 12:57:27;;;;;;;7.22;5.32;;;;;;;;;;10282952;28;20077;-57
2021/08/22 13:02:28;;;;;;;10.55;6.05;;;;;;;;;;10282584;28;20503;-56
2021/08/22 13:07:28;;;;;;;8.25;5.43;;;;;;;;;;10282666;28;20045;-58
2021/08/22 13:12:26;;;;;;;5.32;4.32;;;;;;;;;;10282383;28;20111;-56
2021/08/22 13:17:24;;;;;;;6.93;4.70;;;;;;;;;;10281652;28;20072;-58
2021/08/22 13:22:23;;;;;;;6.20;4.80;;;;;;;;;;10280863;28;20079;-57
2021/08/22 13:27:22;;;;;;;5.63;4.80;;;;;;;;;;10281301;28;20052;-58
2021/08/22 13:32:21;;;;;;;7.63;5.40;;;;;;;;;;10281035;28;20089;-57
2021/08/22 13:37:19;;;;;;;6.50;5.30;;;;;;;;;;10280520;28;20037;-57
2021/08/22 13:42:17;;;;;;;5.93;5.32;;;;;;;;;;10281081;28;20045;-57
2021/08/22 13:47:17;;;;;;;6.45;5.32;;;;;;;;;;10280032;28;20103;-57
2021/08/22 13:52:15;;;;;;;8.07;4.60;;;;;;;;;;10279894;28;20072;-57
2021/08/22 13:57:14;;;;;;;7.82;5.95;;;;;;;;;;10280144;28;20083;-58
2021/08/22 14:02:12;;;;;;;5.35;4.75;;;;;;;;;;10280170;28;20041;-57
2021/08/22 14:07:12;;;;;;;7.30;5.65;;;;;;;;;;10279332;28;20048;-57
2021/08/22 14:12:10;;;;;;;8.55;5.90;;;;;;;;;;10279714;28;20080;-58
2021/08/22 14:17:08;;;;;;;8.38;5.20;;;;;;;;;;10279874;28;20045;-58
2021/08/22 14:22:07;;;;;;;5.75;5.03;;;;;;;;;;10279402;28;20049;-51
2021/08/22 14:27:06;;;;;;;6.82;6.22;;;;;;;;;;10279177;28;20053;-56
2021/08/22 14:32:06;;;;;;;7.65;5.47;;;;;;;;;;10278903;28;20080;-58
2021/08/22 14:37:05;;;;;;;9.43;6.70;;;;;;;;;;10283578;28;20072;-58
2021/08/22 14:42:04;;;;;;;6.45;5.32;;;;;;;;;;10302379;28;20413;-58
2021/08/22 14:47:04;;;;;;;7.85;6.60;;;;;;;;;;10277650;28;20057;-58
2021/08/22 14:52:03;;;;;;;6.88;6.20;;;;;;;;;;10279964;28;20111;-58
2021/08/22 14:57:02;;;;;;;9.13;5.20;;;;;;;;;;10295563;28;20417;-57
2021/08/22 15:02:00;;;;;;;8.10;6.22;;;;;;;;;;10308947;28;20041;-57
2021/08/22 15:07:00;;;;;;;8.07;6.00;;;;;;;;;;10295764;28;20041;-58
2021/08/22 15:11:58;;;;;;;6.70;5.07;;;;;;;;;;10293039;28;20081;-58
2021/08/22 15:16:56;;;;;;;6.57;4.88;;;;;;;;;;10296121;28;20072;-58
2021/08/22 15:21:56;;;;;;;5.22;4.72;;;;;;;;;;10291086;28;20501;-58
2021/08/22 15:26:55;;;;;;;8.20;5.00;;;;;;;;;;10291123;28;20033;-59
2021/08/22 15:31:54;;;;;;;10.98;5.72;;;;;;;;;;10287928;28;20087;-58
2021/08/22 15:36:53;;;;;;;6.45;5.85;;;;;;;;;;10285175;28;20068;-59
2021/08/22 15:41:51;;;;;;;9.75;5.50;;;;;;;;;;10274193;28;20048;-57
2021/08/22 15:46:51;;;;;;;10.25;6.38;;;;;;;;;;10275108;28;20210;-56
2021/08/22 15:51:49;;;;;;;6.40;5.80;;;;;;;;;;10275583;28;20517;-58
2021/08/22 15:56:48;;;;;;;7.53;5.35;;;;;;;;;;10276013;28;20077;-57
2021/08/22 16:01:51;;;;;;;9.75;6.25;;;;;;;;;;10273971;28;20052;-57
2021/08/22 16:06:52;;;;;;;7.07;4.70;;;;;;;;;;10274423;28;20080;-57
2021/08/22 16:11:51;;;;;;;10.50;5.93;;;;;;;;;;10275053;28;20045;-57
2021/08/22 16:16:51;;;;;;;8.68;5.20;;;;;;;;;;10275430;28;20092;-58
2021/08/22 16:21:49;;;;;;;15.07;4.93;;;;;;;;;;10275189;28;20052;-57
2021/08/22 16:26:48;;;;;;;12.55;5.63;;;;;;;;;;10275000;28;20052;-57
2021/08/22 16:31:46;;;;;;;6.55;5.32;;;;;;;;;;10275383;28;20088;-58
2021/08/22 16:36:46;;;;;;;6.65;5.90;;;;;;;;;;10275262;28;20091;-57
2021/08/22 16:41:44;;;;;;;10.65;7.90;;;;;;;;;;10274613;28;20045;-57
2021/08/22 16:46:42;;;;;;;7.32;6.00;;;;;;;;;;10274506;28;20075;-57
2021/08/22 16:51:41;;;;;;;13.05;9.73;;;;;;;;;;10273672;28;20410;-56
2021/08/22 16:56:41;;;;;;;16.50;14.10;;;;;;;;;;10274326;28;20068;-57
2021/08/22 17:01:39;;;;;;;11.15;6.40;;;;;;;;;;10281452;28;20505;-57
2021/08/22 17:06:37;;;;;;;8.18;7.15;;;;;;;;;;10282017;28;20045;-55
2021/08/22 17:11:37;;;;;;;8.25;7.35;;;;;;;;;;10281800;28;20107;-56
2021/08/22 17:16:36;;;;;;;9.63;6.75;;;;;;;;;;10281757;28;20041;-57
2021/08/22 17:21:35;;;;;;;11.32;8.82;;;;;;;;;;10281392;28;20045;-57
2021/08/22 17:26:33;;;;;;;8.25;6.40;;;;;;;;;;10281281;28;20048;-56
2021/08/22 17:31:32;;;;;;;7.90;6.97;;;;;;;;;;10281142;28;20085;-57
2021/08/22 17:36:31;;;;;;;9.32;5.68;;;;;;;;;;10281209;28;20041;-56
2021/08/22 17:41:30;;;;;;;13.07;6.00;;;;;;;;;;10280552;28;20084;-57
2021/08/22 17:46:28;;;;;;;8.63;7.20;;;;;;;;;;10280173;28;20084;-57
2021/08/22 17:51:29;;;;;;;8.18;6.57;;;;;;;;;;10280115;28;20080;-56
2021/08/22 17:56:29;;;;;;;8.00;7.07;;;;;;;;;;10279997;28;20045;-55
2021/08/22 18:01:27;;;;;;;9.85;7.65;;;;;;;;;;10279922;28;20037;-55
2021/08/22 18:06:26;;;;;;;10.93;6.10;;;;;;;;;;10279890;28;20045;-55
2021/08/22 18:11:24;;;;;;;8.23;6.80;;;;;;;;;;10278989;28;20077;-56
2021/08/22 18:16:24;;;;;;;12.05;6.32;;;;;;;;;;10279775;28;20406;-54
2021/08/22 18:21:23;;;;;;;6.38;5.65;;;;;;;;;;10279175;28;20037;-57
2021/08/22 18:26:21;;;;;;;6.30;5.70;;;;;;;;;;10279132;28;20049;-56
2021/08/22 18:31:19;;;;;;;6.63;5.47;;;;;;;;;;10279064;28;20091;-56
2021/08/22 18:36:19;;;;;;;7.88;5.45;;;;;;;;;;10278518;28;20529;-55
2021/08/22 18:41:18;;;;;;;6.00;5.40;;;;;;;;;;10278188;28;20041;-54
2021/08/22 18:46:19;;;;;;;10.02;5.03;;;;;;;;;;10278357;28;20064;-54
2021/08/22 18:51:18;;;;;;;5.60;5.10;;;;;;;;;;10278136;28;20095;-56
2021/08/22 18:56:17;;;;;;;6.65;4.68;;;;;;;;;;10277718;28;20045;-57
2021/08/22 19:01:15;;;;;;;8.25;5.40;;;;;;;;;;10277873;28;20506;-53
2021/08/22 19:06:14;;;;;;;6.22;5.35;;;;;;;;;;10277188;28;20041;-56
2021/08/22 19:11:14;;;;;;;5.78;5.18;;;;;;;;;;10277083;28;20068;-56
2021/08/22 19:16:12;;;;;;;6.28;5.18;;;;;;;;;;10277032;28;20041;-53
2021/08/22 19:21:12;;;;;;;4.88;4.43;;;;;;;;;;10276342;28;20494;-57
2021/08/22 19:26:10;;;;;;;6.18;5.18;;;;;;;;;;10276676;28;20045;-52
2021/08/22 19:31:10;;;;;;;8.45;5.45;;;;;;;;;;10276404;28;20063;-55
2021/08/22 19:36:08;;;;;;;6.43;4.05;;;;;;;;;;10276144;28;20068;-55
2021/08/22 19:41:07;;;;;;;9.60;4.78;;;;;;;;;;10276538;28;20565;-55
2021/08/22 19:46:06;;;;;;;13.10;5.18;;;;;;;;;;10274291;28;20529;-56
2021/08/22 19:51:06;;;;;;;8.30;5.10;;;;;;;;;;10275789;28;20509;-56
2021/08/22 19:56:06;;;;;;;5.43;4.93;;;;;;;;;;10276184;28;20454;-55
2021/08/22 20:01:06;;;;;;;11.30;6.18;;;;;;;;;;10275553;28;20470;-57
2021/08/22 20:06:06;;;;;;;11.57;5.63;;;;;;;;;;10275343;28;20532;-57
2021/08/22 20:11:04;;;;;;;4.82;4.32;;;;;;;;;;10275913;28;20048;-56
2021/08/22 20:16:03;;;;;;;6.63;5.53;;;;;;;;;;10275654;28;20076;-57
2021/08/22 20:21:01;;;;;;;6.18;4.93;;;;;;;;;;10275056;28;20037;-57
2021/08/22 20:26:01;;;;;;;5.38;4.88;;;;;;;;;;10275102;28;20056;-57
2021/08/22 20:30:59;;;;;;;11.88;5.20;;;;;;;;;;10275469;28;20053;-57
2021/08/22 20:35:58;;;;;;;5.50;5.00;;;;;;;;;;10283164;28;20080;-57
2021/08/22 20:40:56;;;;;;;6.15;5.38;;;;;;;;;;10282654;28;20083;-57
2021/08/22 20:45:56;;;;;;;7.63;5.40;;;;;;;;;;10282194;28;20483;-56
2021/08/22 20:50:54;;;;;;;5.07;4.57;;;;;;;;;;10282550;28;20044;-56
2021/08/22 20:55:52;;;;;;;5.82;5.22;;;;;;;;;;10282348;28;20064;-56
2021/08/22 21:00:51;;;;;;;5.75;5.25;;;;;;;;;;10282152;28;20052;-57
2021/08/22 21:05:51;;;;;;;4.82;4.38;;;;;;;;;;10279674;28;20072;-55
2021/08/22 21:10:49;;;;;;;5.50;4.95;;;;;;;;;;10281634;28;20044;-56
2021/08/22 21:15:48;;;;;;;8.18;4.90;;;;;;;;;;10281358;28;20076;-57
2021/08/22 21:20:47;;;;;;;5.43;4.90;;;;;;;;;;10288180;28;20076;-50
2021/08/22 21:25:47;;;;;;;8.90;5.70;;;;;;;;;;10291402;28;20517;-55
2021/08/22 21:30:46;;;;;;;5.78;5.13;;;;;;;;;;10279136;28;20067;-56
2021/08/22 21:35:45;;;;;;;7.85;5.18;;;;;;;;;;10281025;28;20084;-52
2021/08/22 21:40:43;;;;;;;6.00;5.20;;;;;;;;;;10281021;28;20052;-56
2021/08/22 21:45:43;;;;;;;5.95;5.18;;;;;;;;;;10279223;28;20084;-55
2021/08/22 21:50:43;;;;;;;7.15;6.03;;;;;;;;;;10280727;28;20037;-52
2021/08/22 21:55:42;;;;;;;8.93;5.18;;;;;;;;;;10279746;28;20088;-55
2021/08/22 22:00:40;;;;;;;5.90;5.30;;;;;;;;;;10279471;28;20437;-55
2021/08/22 22:05:40;;;;;;;10.77;5.95;;;;;;;;;;10279985;28;20049;-54
2021/08/22 22:10:38;;;;;;;6.38;5.55;;;;;;;;;;10279220;28;20080;-52
2021/08/22 22:15:37;;;;;;;9.02;5.40;;;;;;;;;;10279103;28;20080;-51
2021/08/22 22:20:35;;;;;;;6.55;5.43;;;;;;;;;;10279171;28;20041;-57
2021/08/22 22:25:35;;;;;;;6.25;5.65;;;;;;;;;;10278920;28;20041;-52
2021/08/22 22:30:33;;;;;;;5.82;5.20;;;;;;;;;;10278763;28;20052;-55
2021/08/22 22:35:31;;;;;;;6.65;5.72;;;;;;;;;;10278933;28;20501;-54
2021/08/22 22:40:30;;;;;;;8.85;5.50;;;;;;;;;;10278301;28;20426;-52
2021/08/22 22:45:30;;;;;;;6.60;5.82;;;;;;;;;;10278227;28;20049;-56
2021/08/22 22:50:29;;;;;;;8.35;6.05;;;;;;;;;;10276407;28;20222;-56
2021/08/22 22:55:28;;;;;;;6.50;5.90;;;;;;;;;;10276779;28;20083;-54
2021/08/22 23:00:26;;;;;;;7.38;5.68;;;;;;;;;;10294032;28;20166;-53
2021/08/22 23:05:26;;;;;;;6.88;5.47;;;;;;;;;;10286508;28;20052;-54
2021/08/22 23:10:24;;;;;;;11.80;5.70;;;;;;;;;;10277123;28;20048;-53
2021/08/22 23:15:22;;;;;;;7.63;6.13;;;;;;;;;;10284410;28;20064;-53
2021/08/22 23:20:21;;;;;;;6.35;5.75;;;;;;;;;;10279906;28;20521;-53
2021/08/22 23:25:20;;;;;;;11.00;6.00;;;;;;;;;;10282730;28;20510;-55
2021/08/22 23:30:19;;;;;;;8.82;5.95;;;;;;;;;;10280053;28;20055;-51
2021/08/22 23:35:18;;;;;;;8.35;5.97;;;;;;;;;;10276185;28;20080;-51
2021/08/22 23:40:16;;;;;;;9.27;5.22;;;;;;;;;;10276144;28;20045;-54
2021/08/22 23:45:16;;;;;;;7.63;5.00;;;;;;;;;;10275807;28;20044;-52
2021/08/22 23:50:15;;;;;;;8.15;6.32;;;;;;;;;;10276324;28;20080;-56
2021/08/22 23:55:13;;;;;;;6.47;5.55;;;;;;;;;;10276161;28;20080;-52
